メキシコ・シティ国際空港の過去48時間の天気

メキシコ・シティ国際空港 (Mexico City / Licenci)

現在時刻: 2/27 07:38 CST (2/27 13:38 UTC) 以下の時間は現地時間です。

過去48時間のMETAR気象情報
時間 風向 風速(m/s) 視程 気温(℃) 湿度(%) 気圧(hPa) 天気現象
27 07:03 東北東 4 4850m 4 81 1029 もや 煙霧
27 05:50 3 10km以上 4 81 1015.5
27 04:45 東北東 4 10km以上 4 81 1028
27 03:45 4 10km以上 5 75 1028
27 02:45 3 10km以上 6 70 1014
27 01:45 3 10km以上 7 66 1028
27 01:25 東北東 4 10km以上 7 70 1028
27 00:45 西 2 10km以上 9 62 1028
26 23:45 西 5 10km以上 10 58 1014.2
26 22:45 東南東 2 10km以上 11 58 1028
26 21:45 東北東 6 10km以上 12 54 1027
26 21:30 東北東 5 10km以上 12 54 1027
26 20:45 東北東 4 10km以上 14 51 1013
26 20:32 4 10km以上 15 48 1026
26 19:45 西北西 4 10km以上 17 42 1025
26 19:15 西北西 5 10km以上 17 42 1024
26 18:45 西北西 6 10km以上 19 40 1024
26 18:28 西北西 7 10km以上 20 35 1023
26 17:45 南南西 5 10km以上 22 29 1007.5
26 16:41 7 10km以上 23 25 1022
26 15:42 6 10km以上 24 24 1022
26 14:44 南南東 7 10km以上 23 27 1005.1
26 14:27 南東 5 10km以上 23 27 1023
26 13:45 南南東 4 10km以上 22 31 1024
26 12:45 4 10km以上 21 31 1025
26 11:45 東北東 3 10km以上 20 32 1009.1
26 11:34 2 10km以上 20 35 1027
26 10:46 2 10km以上 18 39 1028
26 10:25 不定 2 10km以上 18 42 1028
26 09:50 東北東 3 10km以上 16 45 1028
26 08:46 北北東 6 10km以上 14 47 1011.9
26 07:42 2 10km以上 13 44 1027
26 06:45 東北東 3 10km以上 11 50 1025
26 05:47 3 10km以上 11 54 1009
26 04:40 静穏 0 10km以上 12 47 1024
26 03:41 東北東 2 10km以上 13 51 1024
26 02:45 静穏 0 10km以上 14 51 1004.7
26 01:45 東南東 3 10km以上 15 48 1023
26 00:45 東南東 2 10km以上 16 42 1024
26 00:40 東南東 3 10km以上 16 39 1024
25 23:45 南東 3 10km以上 18 32 1004
25 22:45 西南西 2 10km以上 19 30 1024
25 21:45 西 3 10km以上 19 30 1024
25 20:47 南南西 4 10km以上 20 28 1005.4
25 19:42 南南西 4 10km以上 21 31 1021
25 18:46 南南西 6 10km以上 22 31 1021
25 17:48 南南西 7 10km以上 23 29 1001.2
25 16:45 7 10km以上 24 27 1019
25 15:45 8 10km以上 25 22 1019
25 14:45 6 10km以上 26 20 1000.2
25 13:43 南南東 9 10km以上 26 20 1020
25 12:45 南南東 10 10km以上 25 21 1021
25 11:47 南南東 8 10km以上 25 19 1002.1
25 11:22 6 10km以上 25 19 1023
25 10:47 南南東 6 10km以上 23 25 1023
25 10:24 南南東 6 10km以上 23 27 1024
25 09:45 北東 2 10km以上 21 33 1024
25 08:45 東南東 2 10km以上 19 37 1005.4
25 08:05 東北東 2 10km以上 17 42 1024
MMMX 271303Z 07007KT 3SM BR HZ SKC 04/01 A3039 NOSIG RMK ISOL SC
MMMX 271150Z 08005KT 6SM FEW020 04/01 A3036 NOSIG RMK SLP155 57003 923 8/500 HZY BR N NE
MMMX 271045Z 07008KT 7SM SCT020 04/01 A3035 NOSIG RMK 8/500 HZY
MMMX 270945Z 08008KT 8SM SCT020 05/01 A3036 NOSIG RMK 8/500 HZY
MMMX 270845Z 10006KT 10SM FEW020 06/01 A3037 NOSIG RMK SLP140 57001 939 8/500 HZY
MMMX 270745Z 08006KT 10SM FEW020 07/01 A3037 NOSIG RMK 8/500 HZY
MMMX 270725Z 07008KT 10SM FEW020 07/02 A3037 NOSIG RMK 8/500 HZY
MMMX 270645Z 26004KT 10SM SKC 09/02 A3037 NOSIG RMK HZY SC
MMMX 270545Z 27009KT 8SM SKC 10/02 A3037 NOSIG RMK SLP142 52013 936 HZY
MMMX 270445Z 11003KT 8SM SKC 11/03 A3035 NOSIG RMK HZY
MMMX 270345Z 06011KT 8SM SKC 12/03 A3033 NOSIG RMK HZY
MMMX 270330Z 07009KT 8SM SKC 12/03 A3033 NOSIG RMK HZY
MMMX 270245Z 07007KT 8SM SKC 14/04 A3031 NOSIG RMK SLP130 52029 925 HZY
MMMX 270232Z 10007KT 8SM SKC 15/04 A3030 NOSIG RMK HZY
MMMX 270145Z 30008KT 8SM SKC 17/04 A3027 NOSIG RMK HZY ISOL SC
MMMX 270115Z 29010KT 8SM FEW025 17/04 A3025 NOSIG RMK 8/400 HZY
MMMX 270045Z 30011KT 8SM FEW025 19/05 A3023 NOSIG RMK 8/400 HZY
MMMX 270028Z 29013KT 7SM FEW025 20/04 A3021 NOSIG RMK 8/400 HZY
MMMX 262345Z 20010KT 7SM SCT025 22/03 A3020 NOSIG RMK SLP075 52002 929 8/400 HZY ISOL AC
MMMX 262241Z 17014KT 8SM SCT025 23/02 A3018 NOSIG RMK 8/200 HZY ISOL AC
MMMX 262142Z 17012KT 8SM SCT025 24/02 A3019 NOSIG RMK 8/200 HZY ISOL AC BLDU N NE
MMMX 262044Z 15014KT 6SM SCT025 SCT080 23/03 A3020 NOSIG RMK SLP051 57031 922 8/270 HZY BLDU N NE
MMMX 262027Z 13010G20KT 6SM SCT025 SCT080 23/03 A3021 NOSIG RMK 8/270 HZY BLDU N NE
MMMX 261945Z 15008KT 7SM SCT025 22/04 A3024 NOSIG RMK 8/100 HZY AC
MMMX 261845Z 10007KT 7SM FEW025 21/03 A3028 NOSIG RMK 8/100 HZY
MMMX 261745Z 06005KT 7SM FEW025 20/03 A3032 NOSIG RMK SLP091 57012 985 8/100 HZY
MMMX 261734Z 08004KT 7SM FEW025 20/04 A3032 NOSIG RMK 8/100 HZY
MMMX 261646Z 35004KT 8SM FEW025 18/04 A3035 NOSIG RMK 8/100 HZY
MMMX 261625Z VRB03KT 8SM SKC 18/05 A3035 NOSIG RMK HZY CU FRMG 020 N-NE
MMMX 261550Z 06005KT 8SM SKC 16/04 A3036 NOSIG RMK HZY
MMMX 261446Z 02012KT 8SM SKC 14/03 A3035 NOSIG RMK SLP119 52026 934 HZY
MMMX 261342Z 19003KT 8SM SKC 13/01 A3032 NOSIG RMK HZY CI
MMMX 261245Z 06005KT 10SM SKC 11/01 A3028 NOSIG RMK HZY CI
MMMX 261147Z 08005KT 10SM SKC 11/02 A3025 NOSIG RMK SLP090 52013 925 HZY CI
MMMX 261040Z 00000KT 10SM SKC 12/01 A3023 NOSIG RMK HZY
MMMX 260941Z 06003KT 10SM SKC 13/03 A3023 NOSIG RMK HZY
MMMX 260845Z 00000KT 10SM SKC 14/04 A3022 NOSIG RMK SLP047 57004 906 CI
MMMX 260745Z 12006KT 10SM SKC 15/04 A3022 NOSIG RMK ISOL CI
MMMX 260645Z 11004KT 12SM FEW250 16/03 A3023 NOSIG RMK 8/002
MMMX 260640Z 12005KT 12SM FEW250 16/02 A3023 NOSIG RMK 8/002
MMMX 260545Z 14005KT 12SM SCT250 18/01 A3023 NOSIG RMK SLP040 52002 953 8/002 ISOL AC
MMMX 260445Z 25004KT 12SM FEW090 SCT250 19/01 A3023 NOSIG RMK 8/032
MMMX 260345Z 26006KT 12SM FEW090 SCT250 19/01 A3023 NOSIG RMK 8/032
MMMX 260247Z 20007KT 12SM SKC 20/01 A3020 NOSIG RMK SLP054 52033 901 CI
MMMX 260142Z 21008KT 11SM SCT250 21/03 A3016 NOSIG RMK 8/002
MMMX 260046Z 21012KT 10SM BKN250 22/04 A3014 NOSIG RMK 8/002 HZY ISOL AC
MMMX 252348Z 21014KT 10SM BKN250 23/04 A3012 NOSIG RMK SLP012 57005 963 8/008 HZY ISOL AC
MMMX 252245Z 18013KT 9SM BKN250 24/04 A3010 NOSIG RMK 8/008 HZY ISOL CU AC
MMMX 252145Z 18015KT 10SM BKN250 25/02 A3010 NOSIG RMK 8/008 ISOL CU AND ACSL SW W
MMMX 252045Z 17012KT 10SM BKN250 26/01 A3012 NOSIG RMK SLP002 57018 951 8/008 ISOL CU AND ACSL W NW
MMMX 251943Z 16017KT 10SM FEW250 26/01 A3013 NOSIG RMK 8/002 ACSL
MMMX 251845Z 16019KT 10SM SKC 25/01 A3016 NOSIG RMK ACSL CI
MMMX 251747Z 16015KT 10SM SKC 25/00 A3019 NOSIG RMK SLP021 57013 961 ACSL CI
MMMX 251722Z 18011G21KT 10SM SKC 25/00 A3020 NOSIG RMK CI
MMMX 251647Z 15011KT 10SM SKC 23/02 A3022 NOSIG RMK CI
MMMX 251624Z 16011KT 10SM SKC 23/03 A3023 NOSIG RMK HZY CI
MMMX 251545Z 05003KT 10SM SKC 21/04 A3023 NOSIG RMK HZY
MMMX 251445Z 11004KT 12SM SKC 19/04 A3023 NOSIG RMK SLP054 52017 965
MMMX 251405Z 06004KT 12SM SKC 17/04 A3023 NOSIG